Archival Weather

Chicago O'Hare International

Chicago, Illinois (KORD)

Report from: Thursday, June 23, 2022 5:51 PM CDT
Current time: Tuesday, August 16, 2022 1:53 AM CDT

Current weather
Weather history
Weather forecast

Temperature28.3°C (82.9°F)
Heat index27.5°C (81.6°F)
Dew point8.9°C (48.0°F)
Winds 7 kts (3.6 m/s, 8.1 mph) East (80°)
Visibility10 mi. (16.1 km)
Clouds Few clouds 25,000 ft. (7,620 m)
Altimeter30.01 in.Hg (1016 mB)
Relative humidity30 %
Density altitude1,594 ft. (486 m)
Sea-level pressure101.6 kPa (1016 mB, 30.00 in.Hg)
Remarks Automated weather observing station with precipitation discriminator
Flight conditions Visual Meteorological Conditions
Raw dataKORD 232251Z 08007KT 10SM FEW250 28/09 A3001 RMK AO2 SLP158 T02830089
An error has occurred. This application may no longer respond until reloaded. Reload 🗙